Time;durP1;ratioP1;P1;durP2;ratioP2;P2;SDS_P1;SDS_P2;PMS_P1;PMS_P2;Temp;Humidity;BMP_temperature;BMP_pressure;BME280_temperature;BME280_humidity;BME280_pressure;Samples;Min_cycle;Max_cycle;Signal;HPM_P1;HPM_P2
2022/08/04 00:00:27;;;;;;;7.63;6.38;;;;;;;20.08;54.62;100321.22;4923011;29;20110;-80
2022/08/04 00:03:18;;;;;;;9.57;7.75;;;;;;;20.10;54.85;100313.22;4933858;29;20467;-77
2022/08/04 00:06:10;;;;;;;18.45;11.65;;;;;;;20.02;55.69;100311.66;4935790;29;20086;-78
2022/08/04 00:08:47;;;;;;;11.73;7.40;;;;;;;19.97;55.28;100305.63;4917613;29;20083;-78
2022/08/04 00:11:21;;;;;;;12.63;9.40;;;;;;;20.01;55.63;100317.00;4905855;29;20507;-78
2022/08/04 00:14:09;;;;;;;9.90;7.53;;;;;;;19.97;55.35;100320.66;4908380;29;20059;-78
2022/08/04 00:16:37;;;;;;;17.35;11.93;;;;;;;19.95;56.56;100314.53;4916274;29;20066;-80
2022/08/04 00:19:16;;;;;;;16.80;12.73;;;;;;;19.84;57.08;100322.78;4916559;29;20067;-78
2022/08/04 00:21:54;;;;;;;10.90;8.13;;;;;;;19.71;56.82;100321.38;4916425;29;20056;-78
2022/08/04 00:24:22;;;;;;;8.98;6.85;;;;;;;19.71;56.51;100318.75;4916006;29;20494;-81
2022/08/04 00:26:52;;;;;;;10.85;8.55;;;;;;;19.67;56.67;100315.25;4921062;29;20081;-78
2022/08/04 00:29:21;;;;;;;18.80;11.55;;;;;;;19.50;57.65;100280.41;4933971;29;20511;-81
2022/08/04 00:31:48;;;;;;;17.33;10.40;;;;;;;19.60;57.64;100332.25;4935007;29;20056;-79
2022/08/04 00:34:25;;;;;;;12.45;8.10;;;;;;;19.50;57.31;100313.06;4935074;29;20522;-79
2022/08/04 00:36:54;;;;;;;13.15;9.02;;;;;;;19.50;57.73;100328.09;4935724;29;20060;-80
2022/08/04 00:39:21;;;;;;;13.43;10.55;;;;;;;19.31;57.99;100307.34;4934961;29;20051;-79
2022/08/04 00:42:14;;;;;;;10.52;8.00;;;;;;;19.33;57.66;100328.50;4934948;29;20173;-79
2022/08/04 00:44:47;;;;;;;9.45;7.70;;;;;;;19.37;57.54;100327.53;4935097;29;20071;-80
2022/08/04 00:47:35;;;;;;;7.45;6.32;;;;;;;19.34;57.20;100328.47;4938361;29;20112;-79
2022/08/04 00:50:23;;;;;;;10.40;7.38;;;;;;;19.37;57.24;100331.03;4938816;29;20058;-78
2022/08/04 00:53:06;;;;;;;10.45;7.68;;;;;;;19.30;57.19;100336.56;4939465;29;20059;-78
2022/08/04 00:56:00;;;;;;;11.77;7.82;;;;;;;19.31;57.35;100339.13;4940278;29;20055;-81
2022/08/04 00:58:34;;;;;;;9.18;8.20;;;;;;;19.24;57.95;100338.41;4954788;29;20058;-80
2022/08/04 01:01:03;;;;;;;8.77;6.80;;;;;;;19.10;57.79;100327.31;4939087;29;20066;-79
2022/08/04 01:04:18;;;;;;;10.27;7.68;;;;;;;18.96;57.97;100319.69;4938190;29;20060;-80
2022/08/04 01:07:08;;;;;;;12.48;8.50;;;;;;;18.98;58.61;100349.66;4938498;29;20119;-79
2022/08/04 01:10:21;;;;;;;8.75;7.43;;;;;;;18.88;58.72;100345.47;4938348;29;20054;-79
2022/08/04 01:13:15;;;;;;;10.45;7.65;;;;;;;18.81;58.69;100334.16;4953693;29;20048;-79
2022/08/04 01:15:55;;;;;;;13.20;9.05;;;;;;;18.18;59.17;100237.66;4919191;29;20087;-81
2022/08/04 01:18:52;;;;;;;12.13;7.93;;;;;;;18.82;58.96;100362.38;4938157;29;20514;-79
2022/08/04 01:21:40;;;;;;;10.57;7.88;;;;;;;18.84;59.22;100349.09;4938058;29;20081;-80
2022/08/04 01:24:43;;;;;;;11.27;8.98;;;;;;;18.78;59.44;100349.25;4938081;29;20517;-81
2022/08/04 01:27:30;;;;;;;11.23;9.40;;;;;;;18.67;60.25;100356.50;4937789;29;20151;-79
2022/08/04 01:30:00;;;;;;;10.95;7.78;;;;;;;18.56;60.24;100365.56;4920282;29;20051;-79
2022/08/04 01:32:39;;;;;;;8.10;7.15;;;;;;;18.51;59.63;100342.75;4918695;29;20060;-81
2022/08/04 01:35:25;;;;;;;11.80;6.95;;;;;;;18.54;59.57;100346.22;4918772;29;20056;-78
2022/08/04 01:38:12;;;;;;;9.85;7.00;;;;;;;18.61;59.67;100357.53;4918549;29;20056;-82
2022/08/04 01:40:51;;;;;;;10.52;7.63;;;;;;;18.44;59.75;100327.94;4919418;29;20052;-80
2022/08/04 01:43:20;;;;;;;9.38;7.53;;;;;;;18.49;59.61;100342.78;4917737;29;20059;-77
2022/08/04 01:45:55;;;;;;;7.75;6.95;;;;;;;18.60;59.70;100355.75;4917524;29;20063;-79
2022/08/04 01:57:14;;;;;;;;;;;;;;;18.46;59.60;100361.38;4905348;29;20099;-78
2022/08/04 02:00:03;;;;;;;11.70;8.00;;;;;;;18.54;60.09;100353.25;4916165;29;19933;-81
2022/08/04 02:02:31;;;;;;;9.05;6.85;;;;;;;18.65;60.16;100360.97;4917063;29;20060;-79
2022/08/04 02:04:58;;;;;;;8.82;7.30;;;;;;;18.56;59.98;100339.13;4917301;29;20425;-81
2022/08/04 02:07:51;;;;;;;8.63;7.50;;;;;;;18.73;59.89;100373.09;4927265;29;20036;-81
2022/08/04 02:10:43;;;;;;;9.32;6.70;;;;;;;18.74;59.94;100368.72;4918859;29;20064;-79
2022/08/04 02:13:22;;;;;;;9.88;7.47;;;;;;;18.81;59.73;100360.63;4934882;29;20052;-81
2022/08/04 02:16:10;;;;;;;11.93;7.15;;;;;;;18.76;59.60;100358.97;4936106;29;20111;-79
2022/08/04 02:18:56;;;;;;;9.90;7.90;;;;;;;18.91;59.62;100365.72;4936610;29;20557;-80
2022/08/04 02:21:25;;;;;;;10.90;7.90;;;;;;;18.85;59.64;100361.44;4935797;29;20289;-82
2022/08/04 02:32:51;;;;;;;13.00;10.30;;;;;;;18.90;60.29;100377.19;4917135;29;20533;-81
2022/08/04 02:35:29;;;;;;;15.20;10.75;;;;;;;18.71;59.57;100334.38;4917190;29;20056;-79
2022/08/04 02:38:38;;;;;;;15.93;12.10;;;;;;;18.88;59.60;100366.63;4916954;29;20056;-80
2022/08/04 02:41:08;;;;;;;18.05;15.13;;;;;;;19.02;59.98;100377.78;4897922;29;20060;-81
2022/08/04 02:43:37;;;;;;;15.68;13.98;;;;;;;19.23;59.06;100371.13;4898047;29;20549;-79
2022/08/04 02:46:21;;;;;;;20.48;15.57;;;;;;;19.42;58.60;100370.66;4900172;29;20076;-80
2022/08/04 02:48:50;;;;;;;19.77;14.73;;;;;;;19.59;57.72;100364.94;4900630;29;20531;-79
2022/08/04 02:51:21;;;;;;;13.18;11.25;;;;;;;20.25;56.08;100366.69;4900593;29;20052;-77
2022/08/04 02:53:54;;;;;;;17.23;12.57;;;;;;;21.82;51.97;100371.56;4903000;29;20052;-78
2022/08/04 02:56:24;;;;;;;16.52;13.60;;;;;;;23.30;48.61;100367.75;4933397;29;20067;-78
2022/08/04 02:58:57;;;;;;;15.43;13.80;;;;;;;24.81;44.64;100376.28;4936528;29;20058;-79
2022/08/04 03:01:24;;;;;;;16.10;13.25;;;;;;;26.11;41.63;100360.84;4919195;29;20056;-77
2022/08/04 03:04:22;;;;;;;16.98;13.02;;;;;;;27.68;39.18;100371.69;4917642;29;20059;-79
2022/08/04 03:07:28;;;;;;;16.40;12.80;;;;;;;28.92;37.06;100373.88;4917422;29;20056;-81
2022/08/04 03:10:04;;;;;;;18.30;12.55;;;;;;;30.39;33.54;100371.16;4916225;29;20557;-78
2022/08/04 03:13:04;;;;;;;13.05;11.35;;;;;;;31.85;32.10;100372.94;4931600;29;20062;-82
2022/08/04 03:16:12;;;;;;;14.43;11.90;;;;;;;32.78;30.03;100366.50;4917126;29;20168;-81
2022/08/04 03:19:00;;;;;;;12.05;10.85;;;;;;;33.97;28.81;100365.59;4918220;29;20055;-78
2022/08/04 03:22:03;;;;;;;11.88;10.10;;;;;;;33.87;28.05;100362.81;4916933;29;20415;-76
2022/08/04 03:24:51;;;;;;;10.70;9.60;;;;;;;34.08;27.50;100368.22;4920118;29;20155;-76
2022/08/04 03:27:21;;;;;;;11.48;9.73;;;;;;;34.54;26.50;100366.03;4922275;29;20060;-78
2022/08/04 03:30:10;;;;;;;12.82;9.73;;;;;;;35.86;25.16;100359.38;4922026;29;20060;-79
2022/08/04 03:33:11;;;;;;;10.52;8.90;;;;;;;37.46;23.62;100360.84;4933759;29;20059;-80
2022/08/04 03:36:04;;;;;;;9.52;8.63;;;;;;;37.37;22.87;100360.94;4935739;29;20086;-82
2022/08/04 03:38:53;;;;;;;9.55;8.75;;;;;;;37.08;23.40;100375.59;4930446;29;20048;-79
2022/08/04 03:41:39;;;;;;;10.38;8.13;;;;;;;37.15;23.13;100365.84;4918521;29;20514;-79
2022/08/04 03:44:57;;;;;;;9.30;8.00;;;;;;;36.44;23.77;100366.47;4935502;29;20051;-78
2022/08/04 03:47:27;;;;;;;;;;;;;;;36.42;24.76;100363.91;4936086;29;20086;-82
2022/08/04 03:50:19;;;;;;;7.40;6.28;;;;;;;36.59;23.48;100361.38;4935442;29;19933;-79
2022/08/04 03:53:12;;;;;;;10.13;8.60;;;;;;;37.09;23.14;100380.91;4921934;29;20060;-77
2022/08/04 03:55:58;;;;;;;9.07;8.05;;;;;;;37.47;22.13;100372.56;4915732;29;20518;-78
2022/08/04 03:58:52;;;;;;;10.55;7.65;;;;;;;38.39;21.93;100373.94;4924118;29;20052;-78
2022/08/04 04:01:22;;;;;;;9.77;7.78;;;;;;;37.87;21.71;100374.81;4934288;29;20065;-80
2022/08/04 04:04:13;;;;;;;9.23;7.72;;;;;;;37.87;22.08;100376.69;4935200;29;20429;-76
2022/08/04 04:06:48;;;;;;;14.82;8.95;;;;;;;36.74;22.98;100372.66;4918775;29;20102;-81
2022/08/04 04:09:41;;;;;;;11.93;7.95;;;;;;;34.18;26.25;100376.44;4935878;29;20094;-78
2022/08/04 04:12:47;;;;;;;10.48;7.60;;;;;;;31.45;29.87;100381.44;4935087;29;20518;-79
2022/08/04 04:15:14;;;;;;;10.05;7.72;;;;;;;30.26;32.47;100382.84;4935107;29;20048;-80
2022/08/04 04:17:40;;;;;;;7.78;6.97;;;;;;;29.50;33.60;100388.03;4937520;29;20052;-79
2022/08/04 04:20:16;;;;;;;8.30;7.53;;;;;;;28.73;34.75;100384.09;4941549;29;20446;-80
2022/08/04 04:22:58;;;;;;;8.35;6.78;;;;;;;28.12;36.08;100383.44;4936094;29;20098;-80
2022/08/04 04:25:54;;;;;;;8.32;6.93;;;;;;;27.55;36.86;100351.91;4938169;29;20574;-79
2022/08/04 04:28:43;;;;;;;7.82;6.85;;;;;;;27.58;37.22;100383.94;4946526;29;20040;-78
2022/08/04 04:31:26;;;;;;;8.15;7.32;;;;;;;27.44;38.00;100378.53;4920481;29;20119;-81
2022/08/04 04:34:30;;;;;;;8.40;7.32;;;;;;;27.21;38.35;100386.06;4924426;29;20055;-81
2022/08/04 04:37:24;;;;;;;9.88;7.30;;;;;;;26.98;39.03;100387.38;4938757;29;20051;-79
2022/08/04 04:40:14;;;;;;;8.88;7.70;;;;;;;26.92;39.54;100390.41;4938894;29;20405;-79
2022/08/04 04:42:53;;;;;;;8.40;7.57;;;;;;;26.87;39.88;100396.03;4953323;29;20051;-79
2022/08/04 04:45:30;;;;;;;10.82;7.68;;;;;;;26.67;39.62;100338.19;4938578;29;20094;-81
2022/08/04 04:48:35;;;;;;;10.48;7.88;;;;;;;27.25;39.39;100384.09;4938695;29;20063;-79
2022/08/04 04:51:35;;;;;;;11.85;8.07;;;;;;;27.32;39.46;100389.03;4938096;29;20051;-79
2022/08/04 04:54:12;;;;;;;10.43;7.40;;;;;;;27.28;39.85;100410.75;4931767;29;20134;-78
2022/08/04 04:56:44;;;;;;;8.05;7.20;;;;;;;27.22;40.01;100405.75;4921617;29;20578;-79
2022/08/04 04:59:15;;;;;;;7.75;6.80;;;;;;;27.15;40.28;100408.72;4919562;29;20052;-79
2022/08/04 05:01:48;;;;;;;9.98;7.05;;;;;;;27.13;40.65;100407.94;4933692;29;20067;-80
2022/08/04 05:04:37;;;;;;;8.13;7.03;;;;;;;27.04;40.77;100413.84;4919241;29;20079;-81
2022/08/04 05:07:28;;;;;;;7.17;6.50;;;;;;;26.98;40.95;100408.81;4919721;29;20059;-79
2022/08/04 05:10:04;;;;;;;6.93;6.20;;;;;;;26.79;41.25;100408.13;4919012;29;20307;-79
2022/08/04 05:12:40;;;;;;;9.52;6.57;;;;;;;26.95;41.23;100406.28;4918867;29;20102;-79
2022/08/04 05:15:33;;;;;;;6.75;6.15;;;;;;;27.03;41.41;100416.59;4917227;29;20502;-79
2022/08/04 05:18:05;;;;;;;6.55;5.45;;;;;;;26.68;41.08;100371.22;4917270;29;20564;-79
2022/08/04 05:20:38;;;;;;;10.75;6.50;;;;;;;26.92;41.38;100407.34;4919143;29;20064;-80
2022/08/04 05:23:06;;;;;;;11.48;7.80;;;;;;;26.96;41.52;100398.19;4918782;29;20511;-80
2022/08/04 05:26:01;;;;;;;9.25;7.65;;;;;;;26.90;41.36;100397.66;4918545;29;20068;-80
2022/08/04 05:28:34;;;;;;;7.78;5.70;;;;;;;26.97;40.98;100396.34;4914853;29;20055;-80
2022/08/04 05:31:09;;;;;;;9.50;6.43;;;;;;;26.99;41.35;100399.81;4917647;29;20078;-80
2022/08/04 05:33:53;;;;;;;7.10;5.88;;;;;;;27.20;40.82;100405.78;4918485;29;20116;-79
2022/08/04 05:36:29;;;;;;;5.57;5.07;;;;;;;27.23;40.43;100372.59;4919465;29;20062;-79
2022/08/04 05:39:19;;;;;;;7.05;5.35;;;;;;;27.19;40.71;100358.47;4923351;29;20059;-78
2022/08/04 05:41:49;;;;;;;6.40;5.80;;;;;;;27.60;40.33;100395.47;4919503;29;20132;-79
2022/08/04 05:44:27;;;;;;;6.50;4.97;;;;;;;27.83;39.30;100412.00;4932135;29;20458;-79
2022/08/04 05:46:56;;;;;;;6.38;4.93;;;;;;;27.68;38.50;100414.63;4918768;29;20052;-78
2022/08/04 05:49:26;;;;;;;7.68;5.20;;;;;;;27.35;39.51;100409.44;4918425;29;20048;-78
2022/08/04 05:51:54;;;;;;;;;;;;;;;26.92;40.62;100410.03;4918940;29;20090;-78
2022/08/04 05:54:23;;;;;;;6.93;5.18;;;;;;;27.02;40.74;100405.03;4918368;29;20440;-78
2022/08/04 05:56:53;;;;;;;5.35;4.50;;;;;;;26.45;39.34;100310.84;4919005;29;20062;-77
2022/08/04 05:59:24;;;;;;;7.35;4.50;;;;;;;26.95;39.92;100414.34;4918206;29;20498;-77
2022/08/04 06:01:56;;;;;;;5.82;4.55;;;;;;;26.80;39.36;100397.31;4918333;29;20091;-78
2022/08/04 06:04:30;;;;;;;6.25;4.78;;;;;;;26.77;39.71;100400.16;4918762;29;20108;-79
2022/08/04 06:06:57;;;;;;;6.70;4.72;;;;;;;26.92;39.29;100409.16;4918155;29;20513;-78
2022/08/04 06:09:24;;;;;;;5.45;4.47;;;;;;;27.04;39.42;100419.22;4918168;29;20056;-77
2022/08/04 06:11:53;;;;;;;4.35;3.90;;;;;;;26.92;38.96;100390.41;4916696;29;20144;-76
2022/08/04 06:14:42;;;;;;;4.30;3.90;;;;;;;26.88;38.48;100413.81;4917079;29;20056;-77
2022/08/04 06:17:12;;;;;;;;;;;;;;;26.65;39.29;100404.41;4918192;29;20075;-78
2022/08/04 06:20:01;;;;;;;7.78;4.85;;;;;;;27.09;38.54;100402.84;4918122;29;19950;-77
2022/08/04 06:22:50;;;;;;;6.55;4.25;;;;;;;27.40;37.73;100417.22;4917676;29;20096;-77
2022/08/04 06:25:22;;;;;;;4.30;3.90;;;;;;;27.49;37.76;100397.88;4917787;29;20111;-78
2022/08/04 06:27:51;;;;;;;4.68;3.67;;;;;;;27.36;37.69;100411.16;4917444;29;20453;-78
2022/08/04 06:30:19;;;;;;;6.37;4.47;;;;;;;27.38;37.41;100395.84;4917558;29;20430;-78
2022/08/04 06:32:55;;;;;;;4.85;4.10;;;;;;;27.70;36.99;100401.13;4917424;29;20064;-78
2022/08/04 06:35:32;;;;;;;4.88;3.90;;;;;;;27.56;36.66;100405.50;4917536;29;20056;-77
2022/08/04 06:38:00;;;;;;;4.10;3.70;;;;;;;27.41;37.43;100402.88;4917532;29;20083;-79
2022/08/04 06:40:29;;;;;;;6.63;3.65;;;;;;;26.95;37.33;100385.75;4917673;29;20115;-78
2022/08/04 06:43:06;;;;;;;5.45;4.05;;;;;;;27.05;37.41;100412.88;4916742;29;20044;-80
2022/08/04 06:45:35;;;;;;;6.03;4.35;;;;;;;27.13;37.75;100413.31;4916657;29;20056;-79
2022/08/04 06:48:05;;;;;;;5.70;3.90;;;;;;;27.26;37.64;100405.47;4924357;29;20068;-77
2022/08/04 06:50:36;;;;;;;5.45;4.00;;;;;;;27.45;37.43;100407.97;4926429;29;20052;-78
2022/08/04 06:53:25;;;;;;;4.93;4.20;;;;;;;27.74;36.16;100411.59;4917590;29;20080;-79
2022/08/04 06:55:55;;;;;;;4.35;3.90;;;;;;;27.67;36.74;100414.75;4916772;29;20503;-79
2022/08/04 06:58:23;;;;;;;;;;;;;;;27.33;37.18;100404.16;4916661;29;20167;-79
2022/08/04 07:00:52;;;;;;;6.07;4.30;;;;;;;27.25;37.73;100363.50;4916918;29;19927;-79
2022/08/04 07:03:20;;;;;;;4.43;3.90;;;;;;;27.43;37.38;100417.06;4917014;29;20127;-78
2022/08/04 07:05:50;;;;;;;5.18;4.68;;;;;;;27.33;37.66;100422.06;4924433;29;20142;-80
2022/08/04 07:08:18;;;;;;;;;;;;;;;27.09;37.99;100406.41;4926639;29;20070;-78
2022/08/04 07:10:45;;;;;;;4.57;3.72;;;;;;;27.38;37.29;100401.19;4924803;29;20424;-76
2022/08/04 07:13:12;;;;;;;5.20;3.90;;;;;;;27.37;37.36;100400.34;4923062;29;20052;-79
2022/08/04 07:15:45;;;;;;;4.60;3.80;;;;;;;27.35;37.14;100415.66;4925558;29;20198;-77
2022/08/04 07:18:12;;;;;;;4.47;4.07;;;;;;;27.42;37.32;100393.84;4923091;29;20146;-79
2022/08/04 07:20:42;;;;;;;7.03;3.88;;;;;;;27.57;36.91;100398.31;4921538;29;20055;-79
2022/08/04 07:23:11;;;;;;;4.43;4.03;;;;;;;27.75;36.57;100405.28;4926515;29;20055;-79
2022/08/04 07:25:39;;;;;;;4.03;3.72;;;;;;;27.74;36.86;100389.25;4924645;29;20451;-78
2022/08/04 07:28:28;;;;;;;4.68;4.10;;;;;;;27.83;36.40;100377.97;4926151;29;20051;-78
2022/08/04 07:30:57;;;;;;;5.63;4.30;;;;;;;28.64;35.82;100395.44;4925171;29;20063;-77
2022/08/04 07:33:25;;;;;;;4.38;3.97;;;;;;;29.34;34.70;100385.50;4927559;29;20047;-78
2022/08/04 07:35:56;;;;;;;7.47;3.92;;;;;;;29.58;34.35;100392.91;4935475;29;20056;-77
2022/08/04 07:38:37;;;;;;;6.28;4.32;;;;;;;29.52;34.33;100409.47;4935627;29;20510;-79
2022/08/04 07:41:24;;;;;;;4.40;4.00;;;;;;;29.28;34.57;100391.28;4936109;29;20051;-78
2022/08/04 07:44:09;;;;;;;4.75;4.25;;;;;;;28.78;34.89;100347.91;4935790;29;20102;-78
2022/08/04 07:46:36;;;;;;;5.47;4.22;;;;;;;29.02;35.56;100379.53;4935582;28;20496;-78
2022/08/04 07:49:04;;;;;;;5.78;4.40;;;;;;;29.11;35.16;100384.34;4935448;29;20529;-77
2022/08/04 07:51:34;;;;;;;6.68;4.40;;;;;;;29.15;35.03;100391.25;4935732;29;20052;-79
2022/08/04 07:54:04;;;;;;;8.30;4.63;;;;;;;29.22;35.14;100380.09;4916170;29;20059;-83
2022/08/04 07:56:34;;;;;;;4.85;4.03;;;;;;;29.02;35.26;100389.41;4920643;29;20151;-81
2022/08/04 07:59:03;;;;;;;4.75;4.30;;;;;;;28.90;35.42;100393.78;4936220;29;20150;-80
2022/08/04 08:01:30;;;;;;;4.73;4.10;;;;;;;28.55;35.90;100387.00;4921675;29;20048;-83
2022/08/04 08:03:59;;;;;;;6.38;4.10;;;;;;;28.65;35.96;100386.41;4920892;29;20052;-80
2022/08/04 08:06:28;;;;;;;5.32;4.43;;;;;;;28.77;35.33;100383.81;4920433;29;20052;-79
2022/08/04 08:09:09;;;;;;;5.50;4.35;;;;;;;28.86;35.08;100384.19;4936821;29;20056;-80
2022/08/04 08:11:46;;;;;;;6.85;4.43;;;;;;;28.78;35.47;100366.72;4905289;29;20083;-80
2022/08/04 08:14:34;;;;;;;6.80;4.28;;;;;;;28.62;35.10;100368.66;4925775;29;20115;-80
2022/08/04 08:17:03;;;;;;;4.97;4.00;;;;;;;28.73;35.70;100365.28;4933227;29;20151;-80
2022/08/04 08:19:31;;;;;;;4.82;4.32;;;;;;;28.91;35.71;100382.94;4932780;29;20427;-78
2022/08/04 08:21:59;;;;;;;7.65;4.55;;;;;;;28.99;34.82;100385.09;4935944;29;20056;-77
2022/08/04 08:24:30;;;;;;;7.53;4.80;;;;;;;29.04;34.95;100382.09;4921418;29;20058;-79
2022/08/04 08:26:58;;;;;;;5.68;5.07;;;;;;;29.09;34.70;100382.69;4926637;29;20450;-80
2022/08/04 08:29:28;;;;;;;8.10;4.93;;;;;;;29.08;34.48;100367.50;4929989;29;20048;-79
2022/08/04 08:31:56;;;;;;;6.22;5.25;;;;;;;29.34;34.45;100371.16;4927088;29;20048;-77
2022/08/04 08:34:33;;;;;;;5.65;4.53;;;;;;;29.48;34.58;100375.66;4926187;29;20506;-80
2022/08/04 08:37:03;;;;;;;5.95;5.25;;;;;;;29.77;33.89;100370.97;4928457;29;20047;-77
2022/08/04 08:39:52;;;;;;;8.50;5.57;;;;;;;30.10;33.82;100375.88;4928210;29;20052;-78
2022/08/04 08:42:22;;;;;;;6.68;5.80;;;;;;;30.27;33.18;100376.53;4927754;29;20083;-80
2022/08/04 08:45:11;;;;;;;9.57;6.40;;;;;;;29.87;33.63;100384.69;4927602;29;20052;-80
2022/08/04 08:48:09;;;;;;;10.25;6.55;;;;;;;29.49;34.25;100382.72;4928647;29;20461;-78
2022/08/04 08:50:58;;;;;;;7.10;6.32;;;;;;;29.51;34.04;100379.00;4935232;29;20100;-77
2022/08/04 08:53:44;;;;;;;8.95;6.70;;;;;;;29.61;34.01;100380.06;4931936;29;20060;-77
2022/08/04 08:56:23;;;;;;;7.63;5.88;;;;;;;29.77;34.30;100379.94;4930092;29;20068;-76
2022/08/04 08:59:16;;;;;;;7.68;6.00;;;;;;;29.79;33.99;100382.50;4924205;29;20095;-77
2022/08/04 09:02:12;;;;;;;6.07;5.47;;;;;;;29.83;34.18;100384.03;4928026;29;20059;-76
2022/08/04 09:05:01;;;;;;;6.45;5.60;;;;;;;29.99;33.84;100384.69;4921828;29;20052;-77
2022/08/04 09:07:53;;;;;;;8.95;5.78;;;;;;;30.23;33.19;100383.94;4928947;29;20052;-77
2022/08/04 09:10:35;;;;;;;7.47;6.38;;;;;;;30.11;33.25;100382.09;4918846;29;20422;-78
2022/08/04 09:13:08;;;;;;;7.85;6.68;;;;;;;30.29;33.09;100386.25;4918852;29;20139;-79
2022/08/04 09:15:43;;;;;;;8.38;5.90;;;;;;;30.34;33.13;100392.16;4919188;29;20143;-79
2022/08/04 09:18:31;;;;;;;7.10;6.40;;;;;;;30.06;33.81;100379.75;4919437;29;20103;-79
2022/08/04 09:21:11;;;;;;;7.28;6.25;;;;;;;30.01;33.54;100384.59;4919354;29;20084;-78
2022/08/04 09:23:55;;;;;;;8.52;6.07;;;;;;;29.78;33.74;100361.94;4917588;29;20056;-78
2022/08/04 09:26:39;;;;;;;8.50;6.07;;;;;;;30.13;33.23;100377.47;4918832;29;20143;-77
2022/08/04 09:29:21;;;;;;;7.88;6.43;;;;;;;30.61;32.64;100370.47;4917140;29;20059;-78
2022/08/04 09:31:59;;;;;;;8.98;5.65;;;;;;;30.81;32.45;100387.88;4933081;29;20139;-79
2022/08/04 09:34:39;;;;;;;9.10;5.70;;;;;;;30.72;32.89;100376.91;4918480;29;20422;-80
2022/08/04 09:37:28;;;;;;;7.47;6.38;;;;;;;30.53;32.87;100374.69;4901928;29;20439;-78
2022/08/04 09:40:06;;;;;;;7.22;6.53;;;;;;;30.13;33.33;100385.56;4918404;29;20063;-79
2022/08/04 09:42:48;;;;;;;7.05;6.35;;;;;;;29.72;33.85;100384.75;4918455;29;20514;-80
2022/08/04 09:45:28;;;;;;;8.52;6.50;;;;;;;29.53;34.34;100377.03;4933182;29;20119;-76
2022/08/04 09:48:34;;;;;;;9.38;7.10;;;;;;;29.34;34.39;100333.50;4918579;29;20055;-78
2022/08/04 09:51:13;;;;;;;7.60;6.53;;;;;;;29.34;34.67;100379.25;4918449;29;20062;-81
2022/08/04 09:53:53;;;;;;;;;;;;;;;29.09;34.89;100378.19;4918867;29;20084;-79
2022/08/04 09:56:34;;;;;;;8.77;6.47;;;;;;;29.29;34.85;100379.56;4918731;29;19930;-81
2022/08/04 09:59:19;;;;;;;10.73;7.50;;;;;;;29.23;34.69;100336.06;4918415;29;20431;-78
2022/08/04 10:01:52;;;;;;;8.68;6.75;;;;;;;29.79;34.27;100371.75;4918155;29;20130;-77
2022/08/04 10:04:30;;;;;;;10.57;7.13;;;;;;;29.57;34.46;100316.66;4918352;29;20117;-80
2022/08/04 10:07:06;;;;;;;7.55;6.82;;;;;;;29.79;34.31;100367.25;4918157;29;20051;-79
2022/08/04 10:09:51;;;;;;;9.98;7.20;;;;;;;29.77;34.20;100366.47;4920301;29;20056;-77
2022/08/04 10:12:42;;;;;;;7.57;6.78;;;;;;;29.96;34.79;100373.25;4920323;29;20047;-77
2022/08/04 10:15:34;;;;;;;7.80;6.63;;;;;;;30.12;33.86;100386.53;4923481;29;20170;-78
2022/08/04 10:18:16;;;;;;;8.98;6.90;;;;;;;30.15;33.95;100367.44;4912090;29;20052;-78
2022/08/04 10:21:11;;;;;;;9.40;7.43;;;;;;;30.31;34.04;100367.25;4918973;29;20064;-76
2022/08/04 10:23:47;;;;;;;9.30;6.97;;;;;;;30.26;34.10;100377.47;4916926;29;20479;-75
2022/08/04 10:26:29;;;;;;;9.57;6.97;;;;;;;30.16;33.55;100375.44;4921999;29;20059;-78
2022/08/04 10:29:03;;;;;;;12.23;7.53;;;;;;;30.44;33.04;100375.31;4939970;29;20059;-76
2022/08/04 10:31:38;;;;;;;9.48;7.53;;;;;;;30.66;33.15;100340.47;4947109;29;20060;-76
2022/08/04 10:34:12;;;;;;;8.90;8.00;;;;;;;31.18;32.51;100365.44;4927833;29;20060;-79
2022/08/04 10:37:17;;;;;;;10.45;7.70;;;;;;;31.70;31.33;100368.75;4928120;29;20055;-78
2022/08/04 10:43:09;;;;;;;9.32;7.78;;;;;;;32.02;28.89;100369.81;4926752;29;20164;-77
2022/08/04 10:46:00;;;;;;;11.35;8.30;;;;;;;31.87;29.90;100386.34;4926810;29;20056;-77
2022/08/04 10:48:59;;;;;;;10.85;8.63;;;;;;;31.61;30.70;100378.41;4920076;29;20578;-76
2022/08/04 10:51:35;;;;;;;11.25;9.10;;;;;;;31.62;30.82;100372.91;4904635;29;20058;-79
2022/08/04 10:54:30;;;;;;;10.65;8.80;;;;;;;31.37;31.02;100392.75;4920908;29;20059;-76
2022/08/04 10:57:07;;;;;;;9.90;8.68;;;;;;;31.10;31.24;100394.81;4917348;29;20506;-76
2022/08/04 11:00:01;;;;;;;10.95;8.60;;;;;;;30.93;32.23;100386.16;4917345;29;20102;-78
2022/08/04 11:02:44;;;;;;;13.75;9.20;;;;;;;30.92;32.10;100383.56;4917348;29;20646;-78
2022/08/04 11:05:29;;;;;;;9.93;8.13;;;;;;;31.02;31.63;100388.16;4916061;29;20146;-77
2022/08/04 11:08:02;;;;;;;9.82;8.80;;;;;;;30.93;31.53;100393.38;4897958;29;20139;-78
2022/08/04 11:10:44;;;;;;;10.65;9.05;;;;;;;30.87;31.62;100392.00;4912001;29;20172;-77
2022/08/04 11:13:15;;;;;;;12.00;8.85;;;;;;;30.74;31.51;100365.03;4897919;29;20144;-78
2022/08/04 11:16:01;;;;;;;11.10;9.30;;;;;;;30.56;32.38;100383.38;4897968;29;20053;-79
2022/08/04 11:18:46;;;;;;;15.32;10.20;;;;;;;30.29;32.57;100386.25;4898327;29;20053;-79
2022/08/04 11:21:20;;;;;;;10.73;8.38;;;;;;;30.20;32.55;100392.22;4897715;29;20147;-79
2022/08/04 11:24:14;;;;;;;13.20;8.77;;;;;;;29.96;32.71;100368.72;4906169;29;20036;-78
2022/08/04 11:27:05;;;;;;;10.18;8.90;;;;;;;29.94;33.29;100399.44;4901095;29;20151;-79
2022/08/04 11:30:02;;;;;;;11.50;9.18;;;;;;;30.05;32.59;100385.22;4897125;29;20060;-79
2022/08/04 11:32:36;;;;;;;15.90;9.68;;;;;;;30.00;32.06;100381.00;4898225;29;20122;-77
2022/08/04 11:35:08;;;;;;;14.20;9.52;;;;;;;30.04;32.45;100384.38;4897368;29;20071;-78
2022/08/04 11:37:50;;;;;;;9.75;8.40;;;;;;;30.10;31.60;100381.25;4925414;29;20399;-78
2022/08/04 11:40:26;;;;;;;11.38;10.10;;;;;;;30.15;31.52;100376.41;4916343;29;20059;-79
2022/08/04 11:43:05;;;;;;;10.18;9.00;;;;;;;30.10;31.28;100353.47;4916912;29;20498;-78
2022/08/04 11:45:52;;;;;;;13.45;9.45;;;;;;;30.28;31.21;100378.22;4931148;29;20060;-77
2022/08/04 11:48:28;;;;;;;13.77;8.90;;;;;;;30.23;31.25;100345.38;4916937;29;20076;-78
2022/08/04 11:51:01;;;;;;;12.73;9.88;;;;;;;30.60;31.13;100367.88;4916467;29;20056;-79
2022/08/04 11:53:37;;;;;;;11.10;9.23;;;;;;;30.74;30.88;100380.31;4917798;29;20531;-78
2022/08/04 11:56:08;;;;;;;10.02;8.85;;;;;;;30.90;29.96;100370.19;4919418;29;20064;-77
2022/08/04 11:58:38;;;;;;;12.98;9.20;;;;;;;31.02;29.98;100368.44;4915561;29;20511;-79
2022/08/04 12:01:33;;;;;;;13.13;9.43;;;;;;;31.15;30.24;100362.97;4915734;29;20577;-79
2022/08/04 12:04:17;;;;;;;9.75;8.75;;;;;;;31.12;30.41;100315.50;4916296;29;20058;-80
2022/08/04 12:06:55;;;;;;;12.50;9.98;;;;;;;31.30;30.63;100355.53;4916434;29;20063;-81
2022/08/04 12:10:07;;;;;;;12.63;9.27;;;;;;;31.08;30.50;100365.25;4945163;29;20533;-80
2022/08/04 12:12:41;;;;;;;12.73;9.82;;;;;;;31.07;30.29;100352.75;4935531;29;20048;-79
2022/08/04 12:15:28;;;;;;;12.93;10.35;;;;;;;31.09;30.50;100372.38;4935226;29;20059;-82
2022/08/04 12:18:17;;;;;;;15.77;10.55;;;;;;;30.88;31.08;100355.94;4923771;29;20103;-80
2022/08/04 12:20:49;;;;;;;13.60;10.25;;;;;;;30.44;31.49;100319.63;4916194;29;20060;-80
2022/08/04 12:23:25;;;;;;;11.88;9.85;;;;;;;30.82;31.64;100365.34;4916906;29;20052;-79
2022/08/04 12:25:57;;;;;;;11.60;10.40;;;;;;;30.68;31.68;100327.72;4915748;29;20475;-80
2022/08/04 12:28:37;;;;;;;12.05;10.30;;;;;;;30.53;31.51;100324.31;4930338;29;20151;-86
2022/08/04 12:31:35;;;;;;;12.88;9.60;;;;;;;30.99;31.58;100355.16;4919433;29;20052;-79
2022/08/04 12:34:17;;;;;;;12.80;9.98;;;;;;;31.12;31.86;100350.56;4927197;29;20056;-80
2022/08/04 12:36:56;;;;;;;13.35;9.77;;;;;;;31.09;31.74;100347.25;4949145;29;20260;-79
2022/08/04 12:39:25;;;;;;;;;;;;;;;30.81;31.92;100341.19;4935743;29;20134;-80
2022/08/04 12:42:47;;;;;;;17.00;10.07;;;;;;;30.82;32.42;100341.06;4936956;29;19926;-80